createdAt,value
2023-07-25T00:00:50.283Z,3.10
2023-07-25T00:03:27.197Z,3.00
2023-07-25T00:05:55.266Z,3.50
2023-07-25T00:08:23.450Z,3.40
2023-07-25T00:10:51.591Z,3.20
2023-07-25T00:13:20.747Z,3.40
2023-07-25T00:15:48.900Z,3.40
2023-07-25T00:18:17.175Z,4.00
2023-07-25T00:20:45.258Z,3.40
2023-07-25T00:23:13.432Z,3.70
2023-07-25T00:25:41.637Z,3.40
2023-07-25T00:28:09.764Z,3.10
2023-07-25T00:30:37.941Z,3.20
2023-07-25T00:33:06.703Z,3.60
2023-07-25T00:35:34.940Z,3.40
2023-07-25T00:38:06.038Z,3.00
2023-07-25T00:40:39.007Z,3.60
2023-07-25T00:43:07.169Z,3.20
2023-07-25T00:45:35.471Z,3.50
2023-07-25T00:48:04.571Z,3.40
2023-07-25T00:50:32.939Z,3.60
2023-07-25T00:53:02.838Z,3.70
2023-07-25T00:55:31.210Z,3.40
2023-07-25T00:57:59.502Z,3.40
2023-07-25T01:00:27.850Z,3.30
2023-07-25T01:02:56.173Z,3.50
2023-07-25T01:05:25.908Z,2.80
2023-07-25T01:07:54.137Z,3.10
2023-07-25T01:10:22.223Z,3.70
2023-07-25T01:12:50.454Z,3.60
2023-07-25T01:15:18.685Z,3.30
2023-07-25T01:17:46.881Z,3.30
2023-07-25T01:20:15.596Z,3.60
2023-07-25T01:22:46.240Z,3.30
2023-07-25T01:25:15.201Z,3.50
2023-07-25T01:27:43.491Z,3.40
2023-07-25T01:30:11.869Z,3.30
2023-07-25T01:32:40.064Z,4.00
2023-07-25T01:35:08.695Z,3.80
2023-07-25T01:37:36.903Z,3.40
2023-07-25T01:40:05.381Z,3.60
2023-07-25T01:42:33.597Z,3.60
2023-07-25T01:45:01.790Z,3.70
2023-07-25T01:47:31.640Z,3.90
2023-07-25T01:49:59.848Z,3.70
2023-07-25T01:52:27.992Z,3.70
2023-07-25T01:54:56.130Z,3.90
2023-07-25T01:57:24.308Z,3.80
2023-07-25T01:59:53.058Z,4.00
2023-07-25T02:02:21.351Z,3.70
2023-07-25T02:04:49.631Z,3.80
2023-07-25T02:07:17.703Z,4.50
2023-07-25T02:09:45.832Z,4.30
2023-07-25T02:12:13.913Z,3.70
2023-07-25T02:14:42.000Z,3.90
2023-07-25T02:17:10.291Z,3.60
2023-07-25T02:19:39.461Z,3.50
2023-07-25T02:22:07.787Z,3.70
2023-07-25T02:24:36.931Z,4.10
2023-07-25T02:27:05.371Z,3.80
2023-07-25T02:29:33.808Z,3.80
2023-07-25T02:32:01.873Z,3.90
2023-07-25T02:34:29.981Z,3.50
2023-07-25T02:36:58.197Z,3.40
2023-07-25T02:39:26.268Z,4.00
2023-07-25T02:41:54.445Z,3.50
2023-07-25T02:44:22.592Z,3.80
2023-07-25T02:46:50.813Z,3.50
2023-07-25T02:49:18.961Z,3.60
2023-07-25T02:51:47.104Z,3.20
2023-07-25T02:54:15.193Z,4.50
2023-07-25T02:56:43.281Z,3.60
2023-07-25T02:59:11.391Z,3.20
2023-07-25T03:01:39.645Z,3.40
2023-07-25T03:04:07.870Z,3.90
2023-07-25T03:06:35.968Z,3.70
2023-07-25T03:09:04.692Z,3.50
2023-07-25T03:11:33.042Z,3.10
2023-07-25T03:14:01.600Z,3.20
2023-07-25T03:16:30.330Z,3.40
2023-07-25T03:18:58.509Z,3.70
2023-07-25T03:21:26.721Z,3.60
2023-07-25T03:23:54.930Z,3.40
2023-07-25T03:26:23.396Z,3.30
2023-07-25T03:28:51.549Z,3.50
2023-07-25T03:31:19.688Z,3.70
2023-07-25T03:33:47.977Z,3.60
2023-07-25T03:36:16.066Z,3.50
2023-07-25T03:38:44.247Z,4.00
2023-07-25T03:41:12.427Z,3.40
2023-07-25T03:43:40.479Z,3.70
2023-07-25T03:46:08.901Z,4.00
2023-07-25T03:48:37.092Z,3.60
2023-07-25T03:51:05.220Z,3.40
2023-07-25T03:53:33.460Z,3.60
2023-07-25T03:56:01.830Z,3.50
2023-07-25T03:58:30.025Z,3.60
2023-07-25T04:00:58.146Z,3.90
2023-07-25T04:03:27.700Z,3.50
2023-07-25T04:05:56.346Z,3.60
2023-07-25T04:08:24.634Z,3.60
2023-07-25T04:10:52.744Z,3.70
2023-07-25T04:13:20.805Z,3.70
2023-07-25T04:15:49.165Z,3.60
2023-07-25T04:18:17.636Z,3.60
2023-07-25T04:20:45.785Z,3.20
2023-07-25T04:23:13.912Z,3.60
2023-07-25T04:25:41.997Z,3.60
2023-07-25T04:28:10.990Z,3.80
2023-07-25T04:30:39.195Z,3.50
2023-07-25T04:33:07.911Z,3.50
2023-07-25T04:35:36.316Z,2.90
2023-07-25T04:38:04.426Z,3.50
2023-07-25T04:40:32.782Z,3.60
2023-07-25T04:43:00.909Z,3.20
2023-07-25T04:45:29.100Z,3.20
2023-07-25T04:47:57.295Z,3.10
2023-07-25T04:50:25.420Z,3.20
2023-07-25T04:52:54.355Z,3.00
2023-07-25T04:55:22.457Z,3.40
2023-07-25T04:57:51.730Z,3.60
2023-07-25T05:00:19.970Z,3.10
2023-07-25T05:02:48.209Z,2.90
2023-07-25T05:05:16.517Z,3.20
2023-07-25T05:07:44.629Z,3.10
2023-07-25T05:10:12.770Z,2.90
2023-07-25T05:12:40.903Z,2.70
2023-07-25T05:15:09.266Z,2.90
2023-07-25T05:17:37.498Z,2.80
2023-07-25T05:20:06.638Z,2.40
2023-07-25T05:22:38.049Z,2.60
2023-07-25T05:25:06.567Z,2.80
2023-07-25T05:27:34.932Z,2.60
2023-07-25T05:30:04.110Z,2.70
2023-07-25T05:32:32.982Z,2.70
2023-07-25T05:35:05.947Z,3.10
2023-07-25T05:37:39.305Z,2.70
2023-07-25T05:40:08.040Z,3.10
2023-07-25T05:42:36.489Z,2.60
2023-07-25T05:45:07.892Z,3.00
2023-07-25T05:47:36.059Z,3.20
2023-07-25T05:50:04.579Z,3.30
2023-07-25T05:52:32.846Z,3.20
2023-07-25T05:55:00.921Z,3.00
2023-07-25T05:57:29.206Z,3.10
2023-07-25T05:59:57.319Z,2.80
2023-07-25T06:02:25.562Z,2.80
2023-07-25T06:04:53.756Z,3.00
2023-07-25T06:07:23.838Z,2.90
2023-07-25T06:09:52.340Z,3.00
2023-07-25T06:12:21.025Z,3.40
2023-07-25T06:14:49.441Z,3.30
2023-07-25T06:17:20.656Z,3.10
2023-07-25T06:19:49.380Z,3.60
2023-07-25T06:22:17.823Z,3.00
2023-07-25T06:24:47.670Z,3.30
2023-07-25T06:27:16.191Z,3.00
2023-07-25T06:29:44.708Z,3.20
2023-07-25T06:32:13.061Z,3.10
2023-07-25T06:34:41.888Z,3.10
2023-07-25T06:37:13.043Z,3.10
2023-07-25T06:39:41.179Z,3.40
2023-07-25T06:42:09.309Z,3.30
2023-07-25T06:44:38.101Z,2.70
2023-07-25T06:47:06.686Z,2.90
2023-07-25T06:49:34.748Z,3.10
2023-07-25T06:52:02.942Z,3.10
2023-07-25T06:54:31.255Z,2.50
2023-07-25T06:56:59.662Z,2.90
2023-07-25T06:59:30.974Z,2.70
2023-07-25T07:01:59.249Z,2.40
2023-07-25T07:04:27.443Z,2.30
2023-07-25T07:06:55.690Z,2.60
2023-07-25T07:09:23.800Z,2.00
2023-07-25T07:11:51.944Z,2.30
2023-07-25T07:14:20.061Z,1.90
2023-07-25T07:16:48.309Z,2.10
2023-07-25T07:19:16.647Z,2.20
2023-07-25T07:21:44.736Z,1.90
2023-07-25T07:24:13.223Z,2.60
2023-07-25T07:26:41.413Z,2.10
2023-07-25T07:29:12.183Z,2.70
2023-07-25T07:31:40.461Z,2.30
2023-07-25T07:34:17.560Z,2.10
2023-07-25T07:36:46.363Z,2.50
2023-07-25T07:39:14.849Z,2.30
2023-07-25T07:41:43.039Z,2.10
2023-07-25T07:44:11.110Z,2.60
2023-07-25T07:46:39.283Z,2.40
2023-07-25T07:49:07.465Z,2.40
2023-07-25T07:51:35.570Z,2.00
2023-07-25T07:54:03.723Z,2.30
2023-07-25T07:56:31.992Z,2.20
2023-07-25T07:59:00.128Z,2.50
2023-07-25T08:01:28.988Z,2.10
2023-07-25T08:03:57.326Z,2.00
2023-07-25T08:06:25.627Z,2.10
2023-07-25T08:08:53.740Z,2.40
2023-07-25T08:11:21.851Z,2.40
2023-07-25T08:13:50.066Z,2.10
2023-07-25T08:16:18.185Z,2.20
2023-07-25T08:18:46.305Z,2.10
2023-07-25T08:21:14.481Z,2.20
2023-07-25T08:23:42.600Z,2.50
2023-07-25T08:26:10.914Z,2.30
2023-07-25T08:28:39.092Z,1.90
2023-07-25T08:31:07.763Z,2.10
2023-07-25T08:33:36.095Z,1.90
2023-07-25T08:36:07.318Z,1.80
2023-07-25T08:38:35.617Z,2.20
2023-07-25T08:41:12.168Z,1.70
2023-07-25T08:43:41.701Z,2.10
2023-07-25T08:46:11.377Z,2.30
2023-07-25T08:48:43.090Z,1.80
2023-07-25T08:51:24.034Z,1.60
2023-07-25T08:54:29.317Z,1.70
2023-07-25T08:56:57.666Z,1.50
2023-07-25T08:59:26.856Z,2.30
2023-07-25T09:01:55.950Z,2.00
2023-07-25T09:04:26.765Z,1.60
2023-07-25T09:06:55.201Z,2.20
2023-07-25T09:09:24.836Z,1.80
2023-07-25T09:11:54.457Z,1.50
2023-07-25T09:14:22.588Z,1.80
2023-07-25T09:16:50.794Z,1.40
2023-07-25T09:19:19.097Z,1.80
2023-07-25T09:21:59.111Z,1.50
2023-07-25T09:24:37.981Z,1.40
2023-07-25T09:27:17.833Z,1.90
2023-07-25T09:29:47.964Z,1.50
2023-07-25T09:32:27.288Z,1.40
2023-07-25T09:35:03.546Z,1.60
2023-07-25T09:37:31.815Z,1.20
2023-07-25T09:40:00.070Z,1.20
2023-07-25T09:42:28.388Z,1.40
2023-07-25T09:44:57.455Z,1.40
2023-07-25T09:47:27.820Z,1.40
2023-07-25T09:49:57.507Z,1.30
2023-07-25T09:52:26.814Z,1.30
2023-07-25T09:54:55.120Z,1.70
2023-07-25T09:57:23.429Z,1.30
2023-07-25T09:59:52.549Z,1.30
2023-07-25T10:02:21.077Z,1.40
2023-07-25T10:04:50.479Z,1.30
2023-07-25T10:07:19.201Z,1.30
2023-07-25T10:09:48.775Z,1.40
2023-07-25T10:12:16.927Z,1.40
2023-07-25T10:14:45.770Z,1.50
2023-07-25T10:17:14.352Z,1.00
2023-07-25T10:19:47.873Z,1.70
2023-07-25T10:22:16.240Z,1.20
2023-07-25T10:24:44.936Z,1.20
2023-07-25T10:27:14.027Z,1.10
2023-07-25T10:29:43.477Z,1.20
2023-07-25T10:32:16.356Z,1.10
2023-07-25T10:34:46.324Z,1.60
2023-07-25T10:37:20.756Z,1.40
2023-07-25T10:40:14.219Z,1.50
2023-07-25T10:45:28.526Z,1.00
2023-07-25T10:47:59.751Z,1.20
2023-07-25T10:50:49.116Z,1.00
2023-07-25T10:53:22.827Z,1.30
2023-07-25T10:56:09.292Z,1.10
2023-07-25T10:58:58.085Z,1.20
2023-07-25T11:01:34.199Z,1.00
2023-07-25T11:04:41.441Z,1.10
2023-07-25T11:07:12.378Z,1.10
2023-07-25T11:09:43.252Z,1.10
2023-07-25T11:12:12.761Z,1.60
2023-07-25T11:14:43.517Z,1.30
2023-07-25T11:17:14.996Z,1.20
2023-07-25T11:19:43.168Z,1.20
2023-07-25T11:22:12.960Z,1.00
2023-07-25T11:24:46.048Z,1.20
2023-07-25T11:27:15.822Z,1.10
2023-07-25T11:29:44.212Z,0.80
2023-07-25T11:32:12.438Z,0.90
2023-07-25T11:34:41.235Z,0.70
2023-07-25T11:37:13.157Z,1.40
2023-07-25T11:42:09.858Z,0.60
2023-07-25T11:44:38.621Z,1.20
2023-07-25T11:47:07.068Z,0.60
2023-07-25T11:49:49.285Z,0.60
2023-07-25T11:52:20.916Z,0.70
2023-07-25T11:54:49.408Z,1.20
2023-07-25T11:57:17.610Z,0.70
2023-07-25T11:59:45.875Z,0.80
2023-07-25T12:02:14.087Z,0.60
2023-07-25T12:04:45.044Z,0.60
2023-07-25T12:07:14.846Z,1.10
2023-07-25T12:09:53.365Z,0.70
2023-07-25T12:12:22.373Z,0.80
2023-07-25T12:14:59.090Z,0.60
2023-07-25T12:17:46.117Z,0.70
2023-07-25T12:20:21.342Z,0.80
2023-07-25T12:22:49.670Z,0.70
2023-07-25T12:25:19.335Z,0.60
2023-07-25T12:27:49.955Z,0.60
2023-07-25T12:30:18.143Z,0.60
2023-07-25T12:32:46.328Z,0.80
2023-07-25T12:35:14.592Z,0.70
2023-07-25T12:37:42.878Z,0.70
2023-07-25T12:40:11.534Z,0.80
2023-07-25T12:42:39.789Z,0.80
2023-07-25T12:45:11.029Z,0.90
2023-07-25T12:47:40.053Z,0.80
2023-07-25T12:50:10.028Z,1.00
2023-07-25T12:52:38.445Z,1.40
2023-07-25T12:55:07.346Z,1.00
2023-07-25T12:57:35.769Z,1.30
2023-07-25T13:00:08.502Z,0.90
2023-07-25T13:02:38.280Z,0.70
2023-07-25T13:05:08.171Z,0.80
2023-07-25T13:07:36.709Z,1.10
2023-07-25T13:10:08.163Z,0.80
2023-07-25T13:12:36.420Z,0.80
2023-07-25T13:15:05.932Z,1.00
2023-07-25T13:17:35.199Z,0.70
2023-07-25T13:20:08.437Z,1.00
2023-07-25T13:22:37.418Z,0.90
2023-07-25T13:25:06.333Z,0.80
2023-07-25T13:27:34.546Z,1.00
2023-07-25T13:30:02.769Z,0.90
2023-07-25T13:32:32.021Z,0.80
2023-07-25T13:35:00.425Z,0.80
2023-07-25T13:37:28.659Z,0.80
2023-07-25T13:39:56.769Z,0.90
2023-07-25T13:42:25.571Z,1.10
2023-07-25T13:44:53.751Z,0.70
2023-07-25T13:47:22.184Z,0.60
2023-07-25T13:49:51.094Z,0.80
2023-07-25T13:52:19.168Z,0.70
2023-07-25T13:54:47.360Z,0.80
2023-07-25T13:57:15.525Z,1.20
2023-07-25T13:59:43.660Z,0.90
2023-07-25T14:02:11.858Z,0.70
2023-07-25T14:04:40.912Z,1.10
2023-07-25T14:07:09.476Z,1.10
2023-07-25T14:09:37.629Z,1.00
2023-07-25T14:12:06.737Z,1.00
2023-07-25T14:14:35.991Z,1.00
2023-07-25T14:17:04.737Z,1.10
2023-07-25T14:19:32.896Z,0.90
2023-07-25T14:22:01.668Z,0.90
2023-07-25T14:24:31.136Z,1.00
2023-07-25T14:26:59.326Z,1.40
2023-07-25T14:29:27.466Z,1.10
2023-07-25T14:31:55.833Z,1.10
2023-07-25T14:34:25.187Z,0.90
2023-07-25T14:36:53.352Z,1.60
2023-07-25T14:39:21.405Z,0.90
2023-07-25T14:41:49.497Z,0.80
2023-07-25T14:44:17.594Z,0.90
2023-07-25T14:46:45.801Z,0.90
2023-07-25T14:49:13.958Z,1.10
2023-07-25T14:51:42.116Z,1.00
2023-07-25T14:54:10.229Z,0.70
2023-07-25T14:56:38.620Z,1.10
2023-07-25T14:59:07.158Z,0.90
2023-07-25T15:01:35.341Z,0.80
2023-07-25T15:04:03.599Z,0.90
2023-07-25T15:06:32.166Z,0.90
2023-07-25T15:09:01.584Z,1.10
2023-07-25T15:11:30.076Z,1.00
2023-07-25T15:13:58.219Z,1.00
2023-07-25T15:16:26.381Z,1.20
2023-07-25T15:18:54.819Z,1.00
2023-07-25T15:21:22.949Z,1.00
2023-07-25T15:23:51.072Z,1.00
2023-07-25T15:26:19.153Z,1.10
2023-07-25T15:28:47.225Z,1.10
2023-07-25T15:31:15.541Z,1.20
2023-07-25T15:33:43.680Z,1.10
2023-07-25T15:36:11.828Z,1.10
2023-07-25T15:38:39.941Z,0.90
2023-07-25T15:41:08.043Z,1.30
2023-07-25T15:43:36.117Z,1.40
2023-07-25T15:46:04.269Z,1.20
2023-07-25T15:48:32.594Z,1.20
2023-07-25T15:51:00.808Z,1.40
2023-07-25T15:53:28.990Z,1.20
2023-07-25T15:55:57.342Z,1.00
2023-07-25T15:58:25.506Z,1.20
2023-07-25T16:00:53.698Z,1.20
2023-07-25T16:03:22.034Z,1.40
2023-07-25T16:05:50.450Z,1.10
2023-07-25T16:08:18.863Z,1.20
2023-07-25T16:10:47.079Z,1.30
2023-07-25T16:13:15.788Z,1.30
2023-07-25T16:15:47.460Z,1.00
2023-07-25T16:20:44.337Z,1.20
2023-07-25T16:23:12.528Z,1.20
2023-07-25T16:25:40.633Z,1.10
2023-07-25T16:28:08.858Z,1.10
2023-07-25T16:30:37.710Z,1.10
2023-07-25T16:33:05.906Z,1.20
2023-07-25T16:35:34.018Z,1.40
2023-07-25T16:38:03.382Z,1.10
2023-07-25T16:40:31.837Z,1.10
2023-07-25T16:43:00.062Z,1.40
2023-07-25T16:45:28.167Z,1.20
2023-07-25T16:47:56.936Z,1.00
2023-07-25T16:50:25.400Z,1.50
2023-07-25T16:52:53.669Z,1.10
2023-07-25T16:55:21.929Z,1.10
2023-07-25T16:57:50.100Z,1.00
2023-07-25T17:00:18.588Z,1.10
2023-07-25T17:02:46.730Z,1.40
2023-07-25T17:05:14.945Z,1.40
2023-07-25T17:07:43.336Z,0.90
2023-07-25T17:10:11.504Z,1.20
2023-07-25T17:12:39.580Z,1.10
2023-07-25T17:15:08.269Z,1.00
2023-07-25T17:17:36.423Z,0.80
2023-07-25T17:20:05.579Z,1.40
2023-07-25T17:22:33.825Z,1.10
2023-07-25T17:25:01.980Z,1.10
2023-07-25T17:27:30.204Z,1.20
2023-07-25T17:29:58.420Z,1.60
2023-07-25T17:32:27.261Z,1.30
2023-07-25T17:34:55.560Z,1.40
2023-07-25T17:37:23.697Z,1.30
2023-07-25T17:39:51.854Z,0.90
2023-07-25T17:42:20.056Z,1.00
2023-07-25T17:44:48.205Z,1.20
2023-07-25T17:47:16.388Z,0.90
2023-07-25T17:49:44.547Z,1.00
2023-07-25T17:52:12.746Z,1.00
2023-07-25T17:54:40.943Z,1.30
2023-07-25T17:57:09.071Z,1.20
2023-07-25T17:59:37.245Z,1.00
2023-07-25T18:02:05.650Z,1.10
2023-07-25T18:04:34.361Z,1.00
2023-07-25T18:07:02.465Z,1.20
2023-07-25T18:09:30.688Z,1.20
2023-07-25T18:11:58.882Z,1.10
2023-07-25T18:14:27.115Z,1.20
2023-07-25T18:16:55.244Z,1.00
2023-07-25T18:19:23.382Z,1.80
2023-07-25T18:21:52.095Z,1.20
2023-07-25T18:24:20.389Z,1.80
2023-07-25T18:26:49.696Z,1.30
2023-07-25T18:29:17.914Z,1.10
2023-07-25T18:31:46.093Z,1.20
2023-07-25T18:34:14.697Z,1.00
2023-07-25T18:36:42.831Z,1.10
2023-07-25T18:39:14.962Z,1.10
2023-07-25T18:41:43.165Z,1.10
2023-07-25T18:44:11.278Z,1.60
2023-07-25T18:46:39.436Z,1.20
2023-07-25T18:49:07.713Z,1.20
2023-07-25T18:51:35.900Z,1.30
2023-07-25T18:54:04.185Z,1.90
2023-07-25T18:56:33.386Z,1.30
2023-07-25T18:59:02.715Z,1.10
2023-07-25T19:01:34.196Z,1.40
2023-07-25T19:04:02.629Z,1.00
2023-07-25T19:06:31.268Z,1.30
2023-07-25T19:08:59.907Z,1.60
2023-07-25T19:11:28.172Z,1.20
2023-07-25T19:13:56.484Z,1.40
2023-07-25T19:16:24.725Z,1.90
2023-07-25T19:18:52.926Z,1.40
2023-07-25T19:21:21.006Z,1.60
2023-07-25T19:23:49.144Z,1.40
2023-07-25T19:26:17.336Z,1.60
2023-07-25T19:28:45.612Z,1.60
2023-07-25T19:31:13.757Z,1.40
2023-07-25T19:33:41.973Z,1.40
2023-07-25T19:36:10.136Z,1.90
2023-07-25T19:38:38.347Z,1.20
2023-07-25T19:41:15.400Z,1.40
2023-07-25T19:43:43.765Z,2.20
2023-07-25T19:46:11.902Z,1.40
2023-07-25T19:48:40.136Z,1.70
2023-07-25T19:51:10.525Z,1.60
2023-07-25T19:53:39.354Z,1.80
2023-07-25T19:56:12.445Z,2.40
2023-07-25T19:58:44.818Z,2.00
2023-07-25T20:01:14.226Z,1.50
2023-07-25T20:03:42.692Z,1.70
2023-07-25T20:06:11.041Z,1.70
2023-07-25T20:08:39.252Z,2.30
2023-07-25T20:11:08.641Z,2.40
2023-07-25T20:13:36.984Z,1.90
2023-07-25T20:16:05.459Z,2.10
2023-07-25T20:18:33.844Z,2.10
2023-07-25T20:21:09.885Z,1.80
2023-07-25T20:23:39.527Z,1.90
2023-07-25T20:26:07.909Z,1.80
2023-07-25T20:28:36.042Z,1.90
2023-07-25T20:37:36.008Z,1.90
2023-07-25T20:40:06.460Z,2.40
2023-07-25T20:42:36.043Z,2.40
2023-07-25T20:45:04.419Z,1.60
2023-07-25T20:47:34.576Z,1.70
2023-07-25T20:50:05.356Z,1.80
2023-07-25T20:52:33.492Z,1.80
2023-07-25T20:55:01.936Z,2.10
2023-07-25T20:57:31.213Z,1.90
2023-07-25T20:59:59.355Z,2.10
2023-07-25T21:02:27.764Z,2.10
2023-07-25T21:04:55.915Z,2.20
2023-07-25T21:07:24.030Z,1.80
2023-07-25T21:09:52.233Z,1.70
2023-07-25T21:12:20.403Z,1.70
2023-07-25T21:14:48.513Z,1.60
2023-07-25T21:17:16.726Z,2.00
2023-07-25T21:19:44.834Z,1.70
2023-07-25T21:22:13.087Z,1.60
2023-07-25T21:24:41.804Z,1.90
2023-07-25T21:27:09.905Z,1.50
2023-07-25T21:29:38.040Z,1.80
2023-07-25T21:32:06.369Z,1.70
2023-07-25T21:34:34.535Z,2.60
2023-07-25T21:37:02.793Z,1.90
2023-07-25T21:39:30.927Z,2.10
2023-07-25T21:41:59.099Z,2.60
2023-07-25T21:44:27.294Z,2.00
2023-07-25T21:46:55.512Z,2.40
2023-07-25T21:49:24.147Z,1.60
2023-07-25T21:51:52.381Z,2.30
2023-07-25T21:54:20.575Z,1.90
2023-07-25T21:56:51.017Z,2.00
2023-07-25T21:59:19.552Z,2.30
2023-07-25T22:01:47.755Z,2.10
2023-07-25T22:04:15.947Z,1.90
2023-07-25T22:06:44.052Z,2.70
2023-07-25T22:09:12.225Z,1.90
2023-07-25T22:11:40.425Z,2.00
2023-07-25T22:14:08.726Z,2.40
2023-07-25T22:16:37.125Z,2.10
2023-07-25T22:19:05.490Z,2.00
2023-07-25T22:21:33.589Z,2.00
2023-07-25T22:24:01.797Z,1.90
2023-07-25T22:26:30.288Z,2.30
2023-07-25T22:28:58.685Z,1.70
2023-07-25T22:31:26.925Z,2.00
2023-07-25T22:33:55.094Z,2.10
2023-07-25T22:36:23.156Z,2.00
2023-07-25T22:38:51.400Z,2.50
2023-07-25T22:41:19.832Z,2.10
2023-07-25T22:43:47.927Z,2.50
2023-07-25T22:46:16.082Z,2.00
2023-07-25T22:48:44.317Z,2.30
2023-07-25T22:51:12.478Z,2.20
2023-07-25T22:53:40.604Z,2.10
2023-07-25T22:56:08.694Z,2.10
2023-07-25T22:58:36.842Z,2.00
2023-07-25T23:01:05.076Z,2.10
2023-07-25T23:03:36.256Z,2.20
2023-07-25T23:06:04.483Z,2.30
2023-07-25T23:08:32.544Z,2.00
2023-07-25T23:11:00.677Z,2.00
2023-07-25T23:13:28.950Z,2.40
2023-07-25T23:15:57.150Z,2.50
2023-07-25T23:18:25.288Z,1.60
2023-07-25T23:20:53.458Z,2.00
2023-07-25T23:23:21.594Z,2.00
2023-07-25T23:25:49.710Z,1.90
2023-07-25T23:28:17.915Z,1.80
2023-07-25T23:30:46.101Z,2.30
2023-07-25T23:33:14.318Z,2.30
2023-07-25T23:35:42.490Z,1.60
2023-07-25T23:38:10.669Z,1.90
2023-07-25T23:40:39.023Z,1.90
2023-07-25T23:43:07.215Z,1.90
2023-07-25T23:45:35.296Z,2.30
2023-07-25T23:48:03.684Z,2.20
2023-07-25T23:50:31.972Z,1.80
2023-07-25T23:53:00.096Z,3.30
2023-07-25T23:55:28.382Z,2.30
2023-07-25T23:57:56.544Z,1.90
